sensor_id;sensor_type;location;lat;lon;timestamp;P1;durP1;ratioP1;P2;durP2;ratioP2
40058;SDS011;25763;49.972;8.568;2024-03-02T00:01:42;29.65;;;28.05;;
40058;SDS011;25763;49.972;8.568;2024-03-02T00:04:28;29.90;;;28.15;;
40058;SDS011;25763;49.972;8.568;2024-03-02T00:07:14;28.20;;;26.70;;
40058;SDS011;25763;49.972;8.568;2024-03-02T00:10:00;27.98;;;26.45;;
40058;SDS011;25763;49.972;8.568;2024-03-02T00:12:47;29.08;;;27.55;;
40058;SDS011;25763;49.972;8.568;2024-03-02T00:15:38;31.33;;;29.58;;
40058;SDS011;25763;49.972;8.568;2024-03-02T00:18:32;32.25;;;30.48;;
40058;SDS011;25763;49.972;8.568;2024-03-02T00:21:20;34.80;;;33.00;;
40058;SDS011;25763;49.972;8.568;2024-03-02T00:24:12;38.03;;;36.03;;
40058;SDS011;25763;49.972;8.568;2024-03-02T00:27:05;34.72;;;32.92;;
40058;SDS011;25763;49.972;8.568;2024-03-02T00:29:52;37.45;;;35.45;;
40058;SDS011;25763;49.972;8.568;2024-03-02T00:32:38;37.25;;;35.35;;
40058;SDS011;25763;49.972;8.568;2024-03-02T00:35:24;40.67;;;38.58;;
40058;SDS011;25763;49.972;8.568;2024-03-02T00:38:10;40.58;;;38.17;;
40058;SDS011;25763;49.972;8.568;2024-03-02T00:40:56;39.92;;;37.88;;
40058;SDS011;25763;49.972;8.568;2024-03-02T00:46:44;42.28;;;40.08;;
40058;SDS011;25763;49.972;8.568;2024-03-02T00:49:30;42.28;;;40.13;;
40058;SDS011;25763;49.972;8.568;2024-03-02T00:52:15;42.75;;;40.55;;
40058;SDS011;25763;49.972;8.568;2024-03-02T00:55:01;44.47;;;42.15;;
40058;SDS011;25763;49.972;8.568;2024-03-02T00:57:47;47.20;;;44.08;;
40058;SDS011;25763;49.972;8.568;2024-03-02T01:00:32;48.65;;;46.00;;
40058;SDS011;25763;49.972;8.568;2024-03-02T01:03:18;45.67;;;43.33;;
40058;SDS011;25763;49.972;8.568;2024-03-02T01:06:04;41.90;;;39.70;;
40058;SDS011;25763;49.972;8.568;2024-03-02T01:08:50;39.13;;;37.00;;
40058;SDS011;25763;49.972;8.568;2024-03-02T01:11:36;36.95;;;34.92;;
40058;SDS011;25763;49.972;8.568;2024-03-02T01:14:22;42.08;;;39.80;;
40058;SDS011;25763;49.972;8.568;2024-03-02T01:17:07;46.42;;;43.95;;
40058;SDS011;25763;49.972;8.568;2024-03-02T01:19:53;45.42;;;43.03;;
40058;SDS011;25763;49.972;8.568;2024-03-02T01:22:39;46.83;;;44.42;;
40058;SDS011;25763;49.972;8.568;2024-03-02T01:25:24;42.72;;;40.53;;
40058;SDS011;25763;49.972;8.568;2024-03-02T01:28:10;46.40;;;44.00;;
40058;SDS011;25763;49.972;8.568;2024-03-02T01:30:56;41.10;;;38.97;;
40058;SDS011;25763;49.972;8.568;2024-03-02T01:33:41;43.00;;;40.70;;
40058;SDS011;25763;49.972;8.568;2024-03-02T01:36:27;41.85;;;39.65;;
40058;SDS011;25763;49.972;8.568;2024-03-02T01:39:13;44.47;;;41.85;;
40058;SDS011;25763;49.972;8.568;2024-03-02T01:41:59;43.97;;;41.50;;
40058;SDS011;25763;49.972;8.568;2024-03-02T01:44:44;43.10;;;40.90;;
40058;SDS011;25763;49.972;8.568;2024-03-02T01:47:30;44.90;;;42.60;;
40058;SDS011;25763;49.972;8.568;2024-03-02T01:50:16;49.78;;;47.03;;
40058;SDS011;25763;49.972;8.568;2024-03-02T01:53:10;44.67;;;42.38;;
40058;SDS011;25763;49.972;8.568;2024-03-02T01:55:56;47.38;;;44.63;;
40058;SDS011;25763;49.972;8.568;2024-03-02T01:58:41;51.65;;;48.88;;
40058;SDS011;25763;49.972;8.568;2024-03-02T02:01:27;41.35;;;39.20;;
40058;SDS011;25763;49.972;8.568;2024-03-02T02:04:13;37.38;;;35.40;;
40058;SDS011;25763;49.972;8.568;2024-03-02T02:06:59;39.95;;;37.88;;
40058;SDS011;25763;49.972;8.568;2024-03-02T02:09:45;37.13;;;35.20;;
40058;SDS011;25763;49.972;8.568;2024-03-02T02:12:30;38.53;;;36.28;;
40058;SDS011;25763;49.972;8.568;2024-03-02T02:15:23;32.78;;;30.88;;
40058;SDS011;25763;49.972;8.568;2024-03-02T02:18:09;29.75;;;28.13;;
40058;SDS011;25763;49.972;8.568;2024-03-02T02:20:55;34.10;;;32.28;;
40058;SDS011;25763;49.972;8.568;2024-03-02T02:23:41;39.92;;;37.85;;
40058;SDS011;25763;49.972;8.568;2024-03-02T02:26:31;53.05;;;50.25;;
40058;SDS011;25763;49.972;8.568;2024-03-02T02:29:17;56.28;;;53.33;;
40058;SDS011;25763;49.972;8.568;2024-03-02T02:32:02;53.97;;;51.28;;
40058;SDS011;25763;49.972;8.568;2024-03-02T02:34:52;57.42;;;54.53;;
40058;SDS011;25763;49.972;8.568;2024-03-02T02:37:38;52.92;;;50.03;;
40058;SDS011;25763;49.972;8.568;2024-03-02T02:40:24;52.80;;;50.10;;
40058;SDS011;25763;49.972;8.568;2024-03-02T02:43:09;57.50;;;54.53;;
40058;SDS011;25763;49.972;8.568;2024-03-02T02:45:55;52.30;;;49.60;;
40058;SDS011;25763;49.972;8.568;2024-03-02T02:48:41;51.08;;;48.45;;
40058;SDS011;25763;49.972;8.568;2024-03-02T02:51:26;46.85;;;44.45;;
40058;SDS011;25763;49.972;8.568;2024-03-02T02:54:12;49.33;;;46.75;;
40058;SDS011;25763;49.972;8.568;2024-03-02T02:56:58;48.20;;;45.72;;
40058;SDS011;25763;49.972;8.568;2024-03-02T02:59:44;46.03;;;43.42;;
40058;SDS011;25763;49.972;8.568;2024-03-02T03:02:30;45.22;;;42.92;;
40058;SDS011;25763;49.972;8.568;2024-03-02T03:05:15;45.05;;;42.72;;
40058;SDS011;25763;49.972;8.568;2024-03-02T03:08:02;48.20;;;45.67;;
40058;SDS011;25763;49.972;8.568;2024-03-02T03:10:48;50.25;;;47.70;;
40058;SDS011;25763;49.972;8.568;2024-03-02T03:13:33;51.45;;;48.80;;
40058;SDS011;25763;49.972;8.568;2024-03-02T03:16:19;48.75;;;46.28;;
40058;SDS011;25763;49.972;8.568;2024-03-02T03:19:05;48.13;;;45.53;;
40058;SDS011;25763;49.972;8.568;2024-03-02T03:21:51;48.75;;;46.13;;
40058;SDS011;25763;49.972;8.568;2024-03-02T03:24:36;45.78;;;43.35;;
40058;SDS011;25763;49.972;8.568;2024-03-02T03:27:22;42.25;;;39.97;;
40058;SDS011;25763;49.972;8.568;2024-03-02T03:30:08;36.97;;;35.08;;
40058;SDS011;25763;49.972;8.568;2024-03-02T03:32:54;37.17;;;35.22;;
40058;SDS011;25763;49.972;8.568;2024-03-02T03:35:40;34.22;;;32.45;;
40058;SDS011;25763;49.972;8.568;2024-03-02T03:38:25;34.08;;;32.33;;
40058;SDS011;25763;49.972;8.568;2024-03-02T03:41:11;32.17;;;30.48;;
40058;SDS011;25763;49.972;8.568;2024-03-02T03:43:56;35.13;;;33.22;;
40058;SDS011;25763;49.972;8.568;2024-03-02T03:46:42;40.83;;;38.72;;
40058;SDS011;25763;49.972;8.568;2024-03-02T03:49:28;46.70;;;44.30;;
40058;SDS011;25763;49.972;8.568;2024-03-02T03:52:13;49.97;;;47.38;;
40058;SDS011;25763;49.972;8.568;2024-03-02T03:54:59;49.15;;;46.47;;
40058;SDS011;25763;49.972;8.568;2024-03-02T03:57:45;45.33;;;42.95;;
40058;SDS011;25763;49.972;8.568;2024-03-02T04:00:31;42.33;;;40.10;;
40058;SDS011;25763;49.972;8.568;2024-03-02T04:03:17;39.83;;;37.78;;
40058;SDS011;25763;49.972;8.568;2024-03-02T04:06:02;43.00;;;40.78;;
40058;SDS011;25763;49.972;8.568;2024-03-02T04:08:48;47.05;;;44.63;;
40058;SDS011;25763;49.972;8.568;2024-03-02T04:11:34;45.13;;;42.83;;
40058;SDS011;25763;49.972;8.568;2024-03-02T04:14:19;46.97;;;44.58;;
40058;SDS011;25763;49.972;8.568;2024-03-02T04:17:05;48.08;;;45.60;;
40058;SDS011;25763;49.972;8.568;2024-03-02T04:19:50;51.55;;;48.67;;
40058;SDS011;25763;49.972;8.568;2024-03-02T04:22:36;52.35;;;49.63;;
40058;SDS011;25763;49.972;8.568;2024-03-02T04:25:22;50.50;;;47.88;;
40058;SDS011;25763;49.972;8.568;2024-03-02T04:28:07;52.83;;;50.13;;
40058;SDS011;25763;49.972;8.568;2024-03-02T04:30:53;49.75;;;47.20;;
40058;SDS011;25763;49.972;8.568;2024-03-02T04:33:38;46.95;;;44.53;;
40058;SDS011;25763;49.972;8.568;2024-03-02T04:36:24;42.22;;;40.03;;
40058;SDS011;25763;49.972;8.568;2024-03-02T04:39:10;44.03;;;41.33;;
40058;SDS011;25763;49.972;8.568;2024-03-02T04:41:55;43.92;;;41.60;;
40058;SDS011;25763;49.972;8.568;2024-03-02T04:44:41;45.28;;;42.97;;
40058;SDS011;25763;49.972;8.568;2024-03-02T04:47:26;45.70;;;43.33;;
40058;SDS011;25763;49.972;8.568;2024-03-02T04:50:12;42.10;;;39.92;;
40058;SDS011;25763;49.972;8.568;2024-03-02T04:52:58;39.53;;;37.33;;
40058;SDS011;25763;49.972;8.568;2024-03-02T04:55:43;36.45;;;34.55;;
40058;SDS011;25763;49.972;8.568;2024-03-02T04:58:30;33.15;;;31.42;;
40058;SDS011;25763;49.972;8.568;2024-03-02T05:01:15;33.65;;;31.85;;
40058;SDS011;25763;49.972;8.568;2024-03-02T05:04:02;31.05;;;29.42;;
40058;SDS011;25763;49.972;8.568;2024-03-02T05:06:48;30.83;;;29.17;;
40058;SDS011;25763;49.972;8.568;2024-03-02T05:09:37;30.85;;;29.23;;
40058;SDS011;25763;49.972;8.568;2024-03-02T05:12:23;34.05;;;32.22;;
40058;SDS011;25763;49.972;8.568;2024-03-02T05:15:34;31.13;;;29.48;;
40058;SDS011;25763;49.972;8.568;2024-03-02T05:18:20;34.90;;;33.05;;
40058;SDS011;25763;49.972;8.568;2024-03-02T05:21:05;38.30;;;36.13;;
40058;SDS011;25763;49.972;8.568;2024-03-02T05:23:51;33.90;;;32.10;;
40058;SDS011;25763;49.972;8.568;2024-03-02T05:26:36;29.45;;;27.80;;
40058;SDS011;25763;49.972;8.568;2024-03-02T05:29:22;35.22;;;33.13;;
40058;SDS011;25763;49.972;8.568;2024-03-02T05:32:08;31.27;;;29.58;;
40058;SDS011;25763;49.972;8.568;2024-03-02T05:34:53;33.25;;;31.50;;
40058;SDS011;25763;49.972;8.568;2024-03-02T05:37:40;32.08;;;30.33;;
40058;SDS011;25763;49.972;8.568;2024-03-02T05:40:25;35.45;;;32.53;;
40058;SDS011;25763;49.972;8.568;2024-03-02T05:43:11;35.80;;;33.80;;
40058;SDS011;25763;49.972;8.568;2024-03-02T05:45:57;35.97;;;34.10;;
40058;SDS011;25763;49.972;8.568;2024-03-02T05:48:42;33.53;;;31.77;;
40058;SDS011;25763;49.972;8.568;2024-03-02T05:51:28;35.20;;;33.35;;
40058;SDS011;25763;49.972;8.568;2024-03-02T05:54:13;41.03;;;38.70;;
40058;SDS011;25763;49.972;8.568;2024-03-02T05:56:59;39.90;;;37.75;;
40058;SDS011;25763;49.972;8.568;2024-03-02T06:00:02;38.53;;;36.47;;
40058;SDS011;25763;49.972;8.568;2024-03-02T06:02:50;35.35;;;33.42;;
40058;SDS011;25763;49.972;8.568;2024-03-02T06:05:36;32.88;;;31.13;;
40058;SDS011;25763;49.972;8.568;2024-03-02T06:08:21;33.95;;;32.00;;
40058;SDS011;25763;49.972;8.568;2024-03-02T06:11:07;33.00;;;31.23;;
40058;SDS011;25763;49.972;8.568;2024-03-02T06:13:53;33.20;;;31.30;;
40058;SDS011;25763;49.972;8.568;2024-03-02T06:16:38;30.58;;;28.98;;
40058;SDS011;25763;49.972;8.568;2024-03-02T06:19:24;30.63;;;28.98;;
40058;SDS011;25763;49.972;8.568;2024-03-02T06:22:09;31.52;;;29.83;;
40058;SDS011;25763;49.972;8.568;2024-03-02T06:24:55;32.90;;;31.10;;
40058;SDS011;25763;49.972;8.568;2024-03-02T06:27:41;29.92;;;28.33;;
40058;SDS011;25763;49.972;8.568;2024-03-02T06:30:27;30.88;;;29.17;;
40058;SDS011;25763;49.972;8.568;2024-03-02T06:33:12;31.20;;;29.52;;
40058;SDS011;25763;49.972;8.568;2024-03-02T06:35:58;30.05;;;28.40;;
40058;SDS011;25763;49.972;8.568;2024-03-02T06:38:43;28.65;;;27.13;;
40058;SDS011;25763;49.972;8.568;2024-03-02T06:41:29;29.10;;;27.52;;
40058;SDS011;25763;49.972;8.568;2024-03-02T06:44:16;28.35;;;26.73;;
40058;SDS011;25763;49.972;8.568;2024-03-02T06:47:01;29.20;;;27.48;;
40058;SDS011;25763;49.972;8.568;2024-03-02T06:49:47;27.08;;;25.50;;
40058;SDS011;25763;49.972;8.568;2024-03-02T06:52:33;26.80;;;25.33;;
40058;SDS011;25763;49.972;8.568;2024-03-02T06:55:18;33.40;;;31.67;;
40058;SDS011;25763;49.972;8.568;2024-03-02T06:58:04;38.50;;;36.45;;
40058;SDS011;25763;49.972;8.568;2024-03-02T07:00:50;35.55;;;33.70;;
40058;SDS011;25763;49.972;8.568;2024-03-02T07:03:36;40.58;;;38.22;;
40058;SDS011;25763;49.972;8.568;2024-03-02T07:06:22;45.75;;;43.25;;
40058;SDS011;25763;49.972;8.568;2024-03-02T07:09:07;45.45;;;43.03;;
40058;SDS011;25763;49.972;8.568;2024-03-02T07:11:56;42.10;;;39.80;;
40058;SDS011;25763;49.972;8.568;2024-03-02T07:14:41;55.10;;;51.30;;
40058;SDS011;25763;49.972;8.568;2024-03-02T07:17:53;43.35;;;40.47;;
40058;SDS011;25763;49.972;8.568;2024-03-02T07:20:39;40.80;;;38.50;;
40058;SDS011;25763;49.972;8.568;2024-03-02T07:23:24;36.15;;;34.25;;
40058;SDS011;25763;49.972;8.568;2024-03-02T07:26:12;37.22;;;35.20;;
40058;SDS011;25763;49.972;8.568;2024-03-02T07:28:58;34.15;;;31.88;;
40058;SDS011;25763;49.972;8.568;2024-03-02T07:31:44;30.13;;;28.20;;
40058;SDS011;25763;49.972;8.568;2024-03-02T07:34:29;30.88;;;29.23;;
40058;SDS011;25763;49.972;8.568;2024-03-02T07:37:15;34.45;;;32.55;;
40058;SDS011;25763;49.972;8.568;2024-03-02T07:40:00;33.83;;;31.92;;
40058;SDS011;25763;49.972;8.568;2024-03-02T07:42:46;30.88;;;29.17;;
40058;SDS011;25763;49.972;8.568;2024-03-02T07:45:32;34.28;;;32.35;;
40058;SDS011;25763;49.972;8.568;2024-03-02T07:48:17;33.30;;;31.50;;
40058;SDS011;25763;49.972;8.568;2024-03-02T07:51:03;37.30;;;35.20;;
40058;SDS011;25763;49.972;8.568;2024-03-02T07:53:49;37.08;;;35.00;;
40058;SDS011;25763;49.972;8.568;2024-03-02T07:56:34;33.65;;;31.75;;
40058;SDS011;25763;49.972;8.568;2024-03-02T07:59:20;34.92;;;32.92;;
40058;SDS011;25763;49.972;8.568;2024-03-02T08:02:07;34.78;;;32.85;;
40058;SDS011;25763;49.972;8.568;2024-03-02T08:04:52;38.53;;;36.45;;
40058;SDS011;25763;49.972;8.568;2024-03-02T08:07:38;43.30;;;40.95;;
40058;SDS011;25763;49.972;8.568;2024-03-02T08:10:24;47.75;;;45.08;;
40058;SDS011;25763;49.972;8.568;2024-03-02T08:13:09;42.55;;;40.28;;
40058;SDS011;25763;49.972;8.568;2024-03-02T08:15:55;44.17;;;41.60;;
40058;SDS011;25763;49.972;8.568;2024-03-02T08:18:41;44.30;;;41.85;;
40058;SDS011;25763;49.972;8.568;2024-03-02T08:21:27;45.97;;;43.47;;
40058;SDS011;25763;49.972;8.568;2024-03-02T08:24:15;45.63;;;42.83;;
40058;SDS011;25763;49.972;8.568;2024-03-02T08:27:01;50.30;;;47.10;;
40058;SDS011;25763;49.972;8.568;2024-03-02T08:29:47;47.90;;;45.42;;
40058;SDS011;25763;49.972;8.568;2024-03-02T08:32:33;47.65;;;45.05;;
40058;SDS011;25763;49.972;8.568;2024-03-02T08:35:18;46.45;;;43.95;;
40058;SDS011;25763;49.972;8.568;2024-03-02T08:38:04;40.97;;;38.80;;
40058;SDS011;25763;49.972;8.568;2024-03-02T08:40:50;41.08;;;38.83;;
40058;SDS011;25763;49.972;8.568;2024-03-02T08:43:35;46.75;;;44.08;;
40058;SDS011;25763;49.972;8.568;2024-03-02T08:46:21;42.63;;;40.22;;
40058;SDS011;25763;49.972;8.568;2024-03-02T08:49:07;38.83;;;36.53;;
40058;SDS011;25763;49.972;8.568;2024-03-02T08:51:52;38.30;;;36.08;;
40058;SDS011;25763;49.972;8.568;2024-03-02T08:54:41;35.97;;;34.05;;
40058;SDS011;25763;49.972;8.568;2024-03-02T08:57:26;38.00;;;35.90;;
40058;SDS011;25763;49.972;8.568;2024-03-02T09:00:12;38.25;;;36.15;;
40058;SDS011;25763;49.972;8.568;2024-03-02T09:02:58;35.95;;;33.95;;
40058;SDS011;25763;49.972;8.568;2024-03-02T09:05:43;39.50;;;37.00;;
40058;SDS011;25763;49.972;8.568;2024-03-02T09:08:30;38.50;;;36.22;;
40058;SDS011;25763;49.972;8.568;2024-03-02T09:11:15;35.65;;;33.65;;
40058;SDS011;25763;49.972;8.568;2024-03-02T09:14:01;30.23;;;28.52;;
40058;SDS011;25763;49.972;8.568;2024-03-02T09:16:47;31.95;;;30.15;;
40058;SDS011;25763;49.972;8.568;2024-03-02T09:19:33;31.88;;;30.08;;
40058;SDS011;25763;49.972;8.568;2024-03-02T09:22:19;35.90;;;33.90;;
40058;SDS011;25763;49.972;8.568;2024-03-02T09:25:04;33.67;;;31.52;;
40058;SDS011;25763;49.972;8.568;2024-03-02T09:27:52;30.27;;;28.15;;
40058;SDS011;25763;49.972;8.568;2024-03-02T09:30:38;28.77;;;27.17;;
40058;SDS011;25763;49.972;8.568;2024-03-02T09:33:23;26.23;;;24.70;;
40058;SDS011;25763;49.972;8.568;2024-03-02T09:36:19;28.10;;;26.35;;
40058;SDS011;25763;49.972;8.568;2024-03-02T09:39:07;24.15;;;22.80;;
40058;SDS011;25763;49.972;8.568;2024-03-02T09:41:54;25.65;;;24.20;;
40058;SDS011;25763;49.972;8.568;2024-03-02T09:44:40;25.10;;;23.67;;
40058;SDS011;25763;49.972;8.568;2024-03-02T09:47:27;27.50;;;25.80;;
40058;SDS011;25763;49.972;8.568;2024-03-02T09:50:13;27.17;;;25.67;;
40058;SDS011;25763;49.972;8.568;2024-03-02T09:52:59;25.95;;;24.42;;
40058;SDS011;25763;49.972;8.568;2024-03-02T09:55:45;34.38;;;32.50;;
40058;SDS011;25763;49.972;8.568;2024-03-02T09:58:32;27.02;;;25.58;;
40058;SDS011;25763;49.972;8.568;2024-03-02T10:01:17;35.45;;;33.35;;
40058;SDS011;25763;49.972;8.568;2024-03-02T10:04:03;33.95;;;32.15;;
40058;SDS011;25763;49.972;8.568;2024-03-02T10:06:50;39.65;;;37.40;;
40058;SDS011;25763;49.972;8.568;2024-03-02T10:09:36;28.27;;;26.63;;
40058;SDS011;25763;49.972;8.568;2024-03-02T10:12:21;37.65;;;35.17;;
40058;SDS011;25763;49.972;8.568;2024-03-02T10:15:08;24.88;;;23.45;;
40058;SDS011;25763;49.972;8.568;2024-03-02T10:17:54;23.58;;;22.27;;
40058;SDS011;25763;49.972;8.568;2024-03-02T10:20:40;22.45;;;21.05;;
40058;SDS011;25763;49.972;8.568;2024-03-02T10:23:26;22.35;;;21.08;;
40058;SDS011;25763;49.972;8.568;2024-03-02T10:26:18;23.13;;;21.80;;
40058;SDS011;25763;49.972;8.568;2024-03-02T10:29:07;23.65;;;22.27;;
40058;SDS011;25763;49.972;8.568;2024-03-02T10:31:53;30.70;;;28.63;;
40058;SDS011;25763;49.972;8.568;2024-03-02T10:34:39;33.30;;;31.40;;
40058;SDS011;25763;49.972;8.568;2024-03-02T10:37:26;30.42;;;28.65;;
40058;SDS011;25763;49.972;8.568;2024-03-02T10:40:12;44.70;;;42.35;;
40058;SDS011;25763;49.972;8.568;2024-03-02T10:42:58;40.30;;;38.15;;
40058;SDS011;25763;49.972;8.568;2024-03-02T10:45:47;37.53;;;35.55;;
40058;SDS011;25763;49.972;8.568;2024-03-02T10:48:34;37.72;;;35.60;;
40058;SDS011;25763;49.972;8.568;2024-03-02T10:51:22;40.03;;;37.90;;
40058;SDS011;25763;49.972;8.568;2024-03-02T10:54:07;32.47;;;30.65;;
40058;SDS011;25763;49.972;8.568;2024-03-02T10:56:53;29.08;;;27.52;;
40058;SDS011;25763;49.972;8.568;2024-03-02T10:59:56;30.05;;;28.42;;
40058;SDS011;25763;49.972;8.568;2024-03-02T11:02:52;35.45;;;33.58;;
40058;SDS011;25763;49.972;8.568;2024-03-02T11:05:43;30.80;;;29.00;;
40058;SDS011;25763;49.972;8.568;2024-03-02T11:08:30;45.42;;;43.10;;
40058;SDS011;25763;49.972;8.568;2024-03-02T11:11:18;56.80;;;53.83;;
40058;SDS011;25763;49.972;8.568;2024-03-02T11:14:10;40.50;;;38.38;;
40058;SDS011;25763;49.972;8.568;2024-03-02T11:16:59;34.80;;;33.00;;
40058;SDS011;25763;49.972;8.568;2024-03-02T11:19:46;53.80;;;51.05;;
40058;SDS011;25763;49.972;8.568;2024-03-02T11:22:33;40.45;;;38.15;;
40058;SDS011;25763;49.972;8.568;2024-03-02T11:25:23;41.30;;;39.20;;
40058;SDS011;25763;49.972;8.568;2024-03-02T11:28:12;35.38;;;33.30;;
40058;SDS011;25763;49.972;8.568;2024-03-02T11:30:58;30.90;;;29.30;;
40058;SDS011;25763;49.972;8.568;2024-03-02T11:33:44;31.83;;;30.08;;
40058;SDS011;25763;49.972;8.568;2024-03-02T11:36:29;36.05;;;34.08;;
40058;SDS011;25763;49.972;8.568;2024-03-02T11:39:16;55.58;;;52.70;;
40058;SDS011;25763;49.972;8.568;2024-03-02T11:42:02;55.05;;;52.25;;
40058;SDS011;25763;49.972;8.568;2024-03-02T11:44:48;51.75;;;49.08;;
40058;SDS011;25763;49.972;8.568;2024-03-02T11:47:34;49.20;;;46.60;;
40058;SDS011;25763;49.972;8.568;2024-03-02T11:53:24;45.25;;;42.85;;
40058;SDS011;25763;49.972;8.568;2024-03-02T11:56:12;56.38;;;53.47;;
40058;SDS011;25763;49.972;8.568;2024-03-02T11:58:59;52.03;;;49.22;;
40058;SDS011;25763;49.972;8.568;2024-03-02T12:01:46;57.30;;;54.40;;
40058;SDS011;25763;49.972;8.568;2024-03-02T12:04:33;48.15;;;45.75;;
40058;SDS011;25763;49.972;8.568;2024-03-02T12:07:19;33.03;;;31.33;;
40058;SDS011;25763;49.972;8.568;2024-03-02T12:10:07;54.70;;;51.95;;
40058;SDS011;25763;49.972;8.568;2024-03-02T12:12:57;51.95;;;49.28;;
40058;SDS011;25763;49.972;8.568;2024-03-02T12:15:43;43.58;;;41.28;;
40058;SDS011;25763;49.972;8.568;2024-03-02T12:18:29;40.58;;;38.47;;
40058;SDS011;25763;49.972;8.568;2024-03-02T12:21:15;64.10;;;60.90;;
40058;SDS011;25763;49.972;8.568;2024-03-02T12:24:01;40.42;;;38.33;;
40058;SDS011;25763;49.972;8.568;2024-03-02T12:26:47;34.50;;;32.70;;
40058;SDS011;25763;49.972;8.568;2024-03-02T12:29:34;37.03;;;35.13;;
40058;SDS011;25763;49.972;8.568;2024-03-02T12:32:19;34.75;;;32.92;;
40058;SDS011;25763;49.972;8.568;2024-03-02T12:35:05;38.13;;;36.17;;
40058;SDS011;25763;49.972;8.568;2024-03-02T12:37:52;37.10;;;35.08;;
40058;SDS011;25763;49.972;8.568;2024-03-02T12:40:38;35.33;;;33.53;;
40058;SDS011;25763;49.972;8.568;2024-03-02T12:43:24;34.83;;;32.92;;
40058;SDS011;25763;49.972;8.568;2024-03-02T12:46:10;38.17;;;36.17;;
40058;SDS011;25763;49.972;8.568;2024-03-02T12:48:56;36.75;;;34.85;;
40058;SDS011;25763;49.972;8.568;2024-03-02T12:51:42;43.22;;;41.03;;
40058;SDS011;25763;49.972;8.568;2024-03-02T12:54:28;33.03;;;31.30;;
40058;SDS011;25763;49.972;8.568;2024-03-02T12:57:17;38.08;;;36.08;;
40058;SDS011;25763;49.972;8.568;2024-03-02T13:00:04;34.00;;;32.17;;
40058;SDS011;25763;49.972;8.568;2024-03-02T13:02:56;35.33;;;33.50;;
40058;SDS011;25763;49.972;8.568;2024-03-02T13:05:49;34.40;;;32.60;;
40058;SDS011;25763;49.972;8.568;2024-03-02T13:08:35;37.47;;;35.53;;
40058;SDS011;25763;49.972;8.568;2024-03-02T13:11:22;34.85;;;33.05;;
40058;SDS011;25763;49.972;8.568;2024-03-02T13:14:13;37.20;;;35.25;;
40058;SDS011;25763;49.972;8.568;2024-03-02T13:16:58;42.80;;;40.50;;
40058;SDS011;25763;49.972;8.568;2024-03-02T13:22:38;34.67;;;32.78;;
40058;SDS011;25763;49.972;8.568;2024-03-02T13:25:23;43.67;;;41.13;;
40058;SDS011;25763;49.972;8.568;2024-03-02T13:28:09;59.88;;;56.67;;
40058;SDS011;25763;49.972;8.568;2024-03-02T13:30:55;36.72;;;34.83;;
40058;SDS011;25763;49.972;8.568;2024-03-02T13:33:40;37.35;;;35.42;;
40058;SDS011;25763;49.972;8.568;2024-03-02T13:36:26;37.40;;;35.47;;
40058;SDS011;25763;49.972;8.568;2024-03-02T13:39:12;42.03;;;39.58;;
40058;SDS011;25763;49.972;8.568;2024-03-02T13:42:00;39.42;;;37.38;;
40058;SDS011;25763;49.972;8.568;2024-03-02T13:44:51;36.00;;;34.10;;
40058;SDS011;25763;49.972;8.568;2024-03-02T13:47:37;36.63;;;34.72;;
40058;SDS011;25763;49.972;8.568;2024-03-02T13:50:23;35.53;;;33.67;;
40058;SDS011;25763;49.972;8.568;2024-03-02T13:53:08;33.70;;;31.90;;
40058;SDS011;25763;49.972;8.568;2024-03-02T13:55:54;33.50;;;31.73;;
40058;SDS011;25763;49.972;8.568;2024-03-02T13:58:40;30.85;;;29.05;;
40058;SDS011;25763;49.972;8.568;2024-03-02T14:01:28;46.70;;;44.33;;
40058;SDS011;25763;49.972;8.568;2024-03-02T14:04:14;50.80;;;48.17;;
40058;SDS011;25763;49.972;8.568;2024-03-02T14:06:59;31.13;;;29.48;;
40058;SDS011;25763;49.972;8.568;2024-03-02T14:09:46;60.10;;;57.03;;
40058;SDS011;25763;49.972;8.568;2024-03-02T14:12:32;56.72;;;53.88;;
40058;SDS011;25763;49.972;8.568;2024-03-02T14:15:17;45.67;;;43.28;;
40058;SDS011;25763;49.972;8.568;2024-03-02T14:18:03;41.30;;;39.20;;
40058;SDS011;25763;49.972;8.568;2024-03-02T14:20:49;42.03;;;39.85;;
40058;SDS011;25763;49.972;8.568;2024-03-02T14:23:37;39.10;;;37.10;;
40058;SDS011;25763;49.972;8.568;2024-03-02T14:26:23;39.95;;;37.90;;
40058;SDS011;25763;49.972;8.568;2024-03-02T14:29:09;39.30;;;37.30;;
40058;SDS011;25763;49.972;8.568;2024-03-02T14:31:55;37.50;;;35.60;;
40058;SDS011;25763;49.972;8.568;2024-03-02T14:34:40;37.60;;;35.70;;
40058;SDS011;25763;49.972;8.568;2024-03-02T14:37:26;37.15;;;35.25;;
40058;SDS011;25763;49.972;8.568;2024-03-02T14:40:11;39.05;;;37.03;;
40058;SDS011;25763;49.972;8.568;2024-03-02T14:42:58;40.00;;;37.90;;
40058;SDS011;25763;49.972;8.568;2024-03-02T14:45:44;39.55;;;37.50;;
40058;SDS011;25763;49.972;8.568;2024-03-02T14:48:29;40.78;;;38.67;;
40058;SDS011;25763;49.972;8.568;2024-03-02T14:51:15;40.95;;;38.85;;
40058;SDS011;25763;49.972;8.568;2024-03-02T14:54:01;39.20;;;37.20;;
40058;SDS011;25763;49.972;8.568;2024-03-02T14:56:46;40.70;;;38.58;;
40058;SDS011;25763;49.972;8.568;2024-03-02T14:59:33;47.35;;;44.95;;
40058;SDS011;25763;49.972;8.568;2024-03-02T15:02:18;42.22;;;39.88;;
40058;SDS011;25763;49.972;8.568;2024-03-02T15:05:04;40.35;;;38.25;;
40058;SDS011;25763;49.972;8.568;2024-03-02T15:07:51;45.80;;;43.45;;
40058;SDS011;25763;49.972;8.568;2024-03-02T15:10:36;43.78;;;41.55;;
40058;SDS011;25763;49.972;8.568;2024-03-02T15:13:22;39.50;;;37.50;;
40058;SDS011;25763;49.972;8.568;2024-03-02T15:16:08;46.88;;;44.30;;
40058;SDS011;25763;49.972;8.568;2024-03-02T15:18:54;45.55;;;43.22;;
40058;SDS011;25763;49.972;8.568;2024-03-02T15:21:39;40.22;;;38.08;;
40058;SDS011;25763;49.972;8.568;2024-03-02T15:24:25;36.92;;;35.03;;
40058;SDS011;25763;49.972;8.568;2024-03-02T15:27:10;40.85;;;38.78;;
40058;SDS011;25763;49.972;8.568;2024-03-02T15:29:56;39.78;;;37.70;;
40058;SDS011;25763;49.972;8.568;2024-03-02T15:32:43;42.35;;;40.15;;
40058;SDS011;25763;49.972;8.568;2024-03-02T15:35:28;42.92;;;40.72;;
40058;SDS011;25763;49.972;8.568;2024-03-02T15:38:14;36.90;;;34.95;;
40058;SDS011;25763;49.972;8.568;2024-03-02T15:41:02;36.97;;;35.08;;
40058;SDS011;25763;49.972;8.568;2024-03-02T15:43:48;32.30;;;30.60;;
40058;SDS011;25763;49.972;8.568;2024-03-02T15:46:34;36.42;;;34.42;;
40058;SDS011;25763;49.972;8.568;2024-03-02T15:49:20;34.78;;;32.97;;
40058;SDS011;25763;49.972;8.568;2024-03-02T15:52:06;34.60;;;32.80;;
40058;SDS011;25763;49.972;8.568;2024-03-02T15:54:51;34.58;;;32.22;;
40058;SDS011;25763;49.972;8.568;2024-03-02T15:57:37;32.70;;;30.80;;
40058;SDS011;25763;49.972;8.568;2024-03-02T16:00:23;36.13;;;34.03;;
40058;SDS011;25763;49.972;8.568;2024-03-02T16:03:08;32.05;;;30.40;;
40058;SDS011;25763;49.972;8.568;2024-03-02T16:05:54;31.02;;;29.42;;
40058;SDS011;25763;49.972;8.568;2024-03-02T16:08:39;33.13;;;31.13;;
40058;SDS011;25763;49.972;8.568;2024-03-02T16:11:25;32.05;;;30.25;;
40058;SDS011;25763;49.972;8.568;2024-03-02T16:14:13;30.17;;;28.40;;
40058;SDS011;25763;49.972;8.568;2024-03-02T16:16:59;29.35;;;27.83;;
40058;SDS011;25763;49.972;8.568;2024-03-02T16:19:45;31.65;;;30.00;;
40058;SDS011;25763;49.972;8.568;2024-03-02T16:22:30;33.88;;;32.15;;